KPMV

Details ICAO KPMV
Name PLATTSMOUTH MUNI
Region United States
Timezone America/Chicago (UTC-5.0)
Plans Departing 0
Arriving 1
Stats Elevation 1,202 ft / 366 m (AMSL)
Location 40.948371° -95.917362°
Runways 1
Magnetic Variation 2.507° E
Sunrise 2018-05-27 10:58:02 UTC / 2018-05-27 05:58:02 Local
Sunset 2018-05-28 01:46:34 UTC / 2018-05-27 20:46:34 Local
Advertisement - Login to hide

Runways

ID Width Length Bearing (true) Bearing (mag) Surface Threshold Offset Overrun Length
16 98 ft / 30 m 5,509 ft / 1,679 m 167.60° 165.09° Concrete 0 ft / 0 m 0 ft / 0 m
34 98 ft / 30 m 5,509 ft / 1,679 m 347.60° 345.09° Concrete 0 ft / 0 m 0 ft / 0 m

Map

Weather


0- 5 10 15 20 25 30 35+ Temperature / ° C

Clouds and Precipitation
Forecast for 2018-05-27 12:00 UTC. Updated 3 hours ago

Ground ~20,000 ft ~40,000 ft Winds

METAR

KPMV 271335Z AUTO 22007KT 10SM CLR 26/18 A2986 RMK AO2 T02640182

TAF

Not found

Frequencies

Unicom 122.70 MHz CTAF/UNICOM
Approach 120.10 MHz OMAHA APP/DEP
Warning: Do not use this data for real-world aviation or navigation. No guarantee of current accuracy is given.